Time;durP1;ratioP1;P1;durP2;ratioP2;P2;SDS_P1;SDS_P2;PMS_P1;PMS_P2;Temp;Humidity;BMP_temperature;BMP_pressure;BME280_temperature;BME280_humidity;BME280_pressure;Samples;Min_cycle;Max_cycle;Signal;HPM_P1;HPM_P2
2021/11/18 00:00:22;;;;;;;18.85;8.93;;;8.10;99.90;;;;;;5010840;28;20029;-41
2021/11/18 00:02:49;;;;;;;14.25;7.75;;;8.00;99.90;;;;;;5010571;28;20085;-41
2021/11/18 00:05:17;;;;;;;21.85;8.35;;;7.90;99.90;;;;;;5010798;28;20030;-40
2021/11/18 00:07:44;;;;;;;18.27;7.85;;;7.90;99.90;;;;;;5009588;28;20058;-42
2021/11/18 00:10:18;;;;;;;25.85;9.65;;;7.90;99.90;;;;;;5010720;28;20026;-39
2021/11/18 00:12:45;;;;;;;20.55;8.15;;;7.80;99.90;;;;;;5010238;28;20393;-41
2021/11/18 00:15:11;;;;;;;16.10;7.93;;;7.80;99.90;;;;;;5010475;28;20042;-40
2021/11/18 00:17:37;;;;;;;20.90;8.30;;;7.80;99.90;;;;;;5010491;28;20538;-40
2021/11/18 00:20:08;;;;;;;18.40;7.38;;;7.80;99.90;;;;;;5009704;28;20470;-40
2021/11/18 00:22:34;;;;;;;18.25;8.85;;;7.80;99.90;;;;;;5009038;28;20022;-40
2021/11/18 00:24:59;;;;;;;17.88;7.68;;;7.80;99.90;;;;;;5010379;28;20053;-42
2021/11/18 00:27:27;;;;;;;17.17;7.65;;;7.80;99.90;;;;;;5010463;28;20026;-40
2021/11/18 00:29:53;;;;;;;18.98;8.07;;;7.80;99.90;;;;;;5010071;28;20030;-40
2021/11/18 00:32:19;;;;;;;18.20;8.10;;;7.80;99.90;;;;;;5010349;28;20033;-41
2021/11/18 00:34:44;;;;;;;18.50;8.38;;;7.80;99.90;;;;;;4968570;28;1213693;-40
2021/11/18 00:37:10;;;;;;;24.08;8.13;;;7.80;99.90;;;;;;5010287;28;20040;-41
2021/11/18 00:39:36;;;;;;;18.50;8.68;;;7.70;99.90;;;;;;5011061;28;20028;-43
2021/11/18 00:42:01;;;;;;;22.02;8.23;;;7.70;99.90;;;;;;5011107;28;20485;-40
2021/11/18 00:44:27;;;;;;;15.43;7.63;;;7.70;99.90;;;;;;5010968;28;20474;-40
2021/11/18 00:46:54;;;;;;;20.33;7.65;;;7.70;99.90;;;;;;5010795;28;20071;-40
2021/11/18 00:49:19;;;;;;;15.52;7.68;;;7.70;99.90;;;;;;5011027;28;20041;-40
2021/11/18 00:51:45;;;;;;;16.77;7.95;;;7.70;99.90;;;;;;5009919;28;20022;-40
2021/11/18 00:54:12;;;;;;;21.42;7.65;;;7.70;99.90;;;;;;5010972;28;20030;-40
2021/11/18 00:56:37;;;;;;;19.38;7.80;;;7.70;99.90;;;;;;5026972;28;20323;-40
2021/11/18 00:59:03;;;;;;;17.88;7.13;;;7.70;99.90;;;;;;5032049;28;20032;-40
2021/11/18 01:01:32;;;;;;;19.38;7.90;;;7.70;99.90;;;;;;5032236;28;20040;-39
2021/11/18 01:03:59;;;;;;;14.90;7.20;;;7.70;99.90;;;;;;5032149;28;20033;-40
2021/11/18 01:06:24;;;;;;;15.90;7.20;;;7.70;99.90;;;;;;5031248;28;20080;-40
2021/11/18 01:08:50;;;;;;;19.73;8.68;;;7.70;99.90;;;;;;5032045;28;20025;-41
2021/11/18 01:11:23;;;;;;;17.95;8.20;;;7.60;99.90;;;;;;5032235;28;20384;-41
2021/11/18 01:13:51;;;;;;;20.27;8.48;;;7.50;99.90;;;;;;5031980;28;20033;-40
2021/11/18 01:16:21;;;;;;;17.80;8.40;;;7.50;99.90;;;;;;5032152;28;20026;-40
2021/11/18 01:18:47;;;;;;;22.55;8.68;;;7.40;99.90;;;;;;5032067;28;20029;-40
2021/11/18 01:21:13;;;;;;;20.67;7.53;;;7.40;99.90;;;;;;5031391;28;20436;-43
2021/11/18 01:23:40;;;;;;;16.17;6.55;;;7.30;99.90;;;;;;5031950;28;20033;-41
2021/11/18 01:26:08;;;;;;;21.48;7.75;;;7.20;99.90;;;;;;5031906;28;20134;-40
2021/11/18 01:28:34;;;;;;;14.27;7.15;;;7.10;99.90;;;;;;5032021;28;20041;-39
2021/11/18 01:31:00;;;;;;;21.05;7.68;;;7.10;99.90;;;;;;5031868;28;20037;-40
2021/11/18 01:33:26;;;;;;;21.10;8.52;;;7.00;99.90;;;;;;5034856;28;20067;-40
2021/11/18 01:35:52;;;;;;;19.25;7.25;;;7.00;99.90;;;;;;5035419;28;20069;-40
2021/11/18 01:38:19;;;;;;;22.27;8.77;;;6.90;99.90;;;;;;5034564;28;20054;-40
2021/11/18 01:40:53;;;;;;;16.95;7.88;;;6.90;99.90;;;;;;5035227;28;20018;-40
2021/11/18 01:43:21;;;;;;;16.55;6.95;;;6.90;99.90;;;;;;5035329;28;20037;-40
2021/11/18 01:45:48;;;;;;;21.90;9.05;;;6.80;99.90;;;;;;5035144;28;20025;-40
2021/11/18 01:48:14;;;;;;;19.27;8.43;;;6.80;99.90;;;;;;5035296;28;20051;-40
2021/11/18 01:50:42;;;;;;;21.42;7.85;;;6.80;99.90;;;;;;5035253;28;20028;-40
2021/11/18 01:53:14;;;;;;;22.13;7.93;;;6.80;99.90;;;;;;5034089;28;20163;-43
2021/11/18 01:55:43;;;;;;;19.38;7.93;;;6.80;99.90;;;;;;5035180;28;20033;-41
2021/11/18 01:58:09;;;;;;;28.13;7.40;;;6.80;99.90;;;;;;5035062;28;20496;-39
2021/11/18 02:00:40;;;;;;;17.83;7.80;;;6.80;99.90;;;;;;5035073;28;20029;-40
2021/11/18 02:03:06;;;;;;;18.52;7.50;;;6.70;99.90;;;;;;5034878;28;20148;-40
2021/11/18 02:05:38;;;;;;;22.90;9.07;;;6.70;99.90;;;;;;5034908;28;20057;-40
2021/11/18 02:08:06;;;;;;;17.02;8.23;;;6.70;99.90;;;;;;5033784;28;20017;-40
2021/11/18 02:10:40;;;;;;;20.13;7.60;;;6.70;99.90;;;;;;5034785;28;20085;-40
2021/11/18 02:13:08;;;;;;;22.52;8.23;;;6.70;99.90;;;;;;5034603;28;20512;-40
2021/11/18 02:15:38;;;;;;;19.60;8.35;;;6.70;99.90;;;;;;5034755;28;20033;-41
2021/11/18 02:18:14;;;;;;;19.15;7.85;;;6.80;99.90;;;;;;5033473;28;20029;-40
2021/11/18 02:20:39;;;;;;;18.23;6.85;;;6.70;99.90;;;;;;5034675;28;20029;-40
2021/11/18 02:23:18;;;;;;;19.92;7.38;;;6.70;99.90;;;;;;5033588;28;20033;-40
2021/11/18 02:25:48;;;;;;;19.20;6.65;;;6.70;99.90;;;;;;5034602;28;20025;-40
2021/11/18 02:28:16;;;;;;;20.42;7.50;;;6.80;99.90;;;;;;5034499;28;20029;-40
2021/11/18 02:30:42;;;;;;;17.33;7.35;;;6.80;99.90;;;;;;5034737;28;20453;-40
2021/11/18 02:33:08;;;;;;;16.85;6.70;;;6.80;99.90;;;;;;5034418;28;20064;-40
2021/11/18 02:35:36;;;;;;;20.60;8.15;;;6.90;99.90;;;;;;5034343;28;20021;-40
2021/11/18 02:38:03;;;;;;;19.42;6.85;;;6.90;99.90;;;;;;5033392;28;20100;-40
2021/11/18 02:40:29;;;;;;;20.60;8.02;;;6.90;99.90;;;;;;5034294;28;20022;-40
2021/11/18 02:42:56;;;;;;;21.55;7.22;;;6.90;99.90;;;;;;5033691;28;20056;-39
2021/11/18 02:45:25;;;;;;;14.07;6.18;;;6.90;99.90;;;;;;5033555;28;20021;-40
2021/11/18 02:47:50;;;;;;;19.50;7.43;;;6.90;99.90;;;;;;5034054;28;20029;-40
2021/11/18 02:50:20;;;;;;;21.65;8.68;;;6.90;99.90;;;;;;5033978;28;20021;-40
2021/11/18 02:52:47;;;;;;;15.88;7.07;;;6.90;99.90;;;;;;5032981;28;20037;-40
2021/11/18 02:55:16;;;;;;;13.68;6.47;;;6.90;99.90;;;;;;5033840;28;20042;-41
2021/11/18 02:57:42;;;;;;;15.75;6.35;;;7.00;99.90;;;;;;5033802;28;20033;-41
2021/11/18 03:00:13;;;;;;;19.23;7.82;;;7.00;99.90;;;;;;5033725;28;20036;-41
2021/11/18 03:02:38;;;;;;;16.77;7.28;;;7.00;99.90;;;;;;5033684;28;20049;-40
2021/11/18 03:05:05;;;;;;;22.70;7.20;;;7.00;99.90;;;;;;5033745;28;20021;-40
2021/11/18 03:07:31;;;;;;;19.40;7.28;;;7.00;99.90;;;;;;5032816;28;20029;-43
2021/11/18 03:09:56;;;;;;;16.00;5.88;;;7.00;99.90;;;;;;5033601;28;20071;-40
2021/11/18 03:12:22;;;;;;;25.45;8.15;;;7.00;99.90;;;;;;5033461;28;20033;-42
2021/11/18 03:14:47;;;;;;;17.38;6.95;;;7.00;99.90;;;;;;5033566;28;20029;-40
2021/11/18 03:17:13;;;;;;;16.85;7.25;;;7.00;99.90;;;;;;5033102;28;20026;-40
2021/11/18 03:19:39;;;;;;;21.98;8.73;;;7.10;99.90;;;;;;5033556;28;20544;-39
2021/11/18 03:22:04;;;;;;;23.27;8.40;;;7.00;99.90;;;;;;5032344;28;20029;-40
2021/11/18 03:24:30;;;;;;;20.17;8.68;;;7.00;99.90;;;;;;5033695;28;20385;-40
2021/11/18 03:26:55;;;;;;;18.80;8.32;;;7.00;99.90;;;;;;5033418;28;20029;-40
2021/11/18 03:29:21;;;;;;;17.23;7.38;;;7.00;99.90;;;;;;5033202;28;20025;-42
2021/11/18 03:31:47;;;;;;;18.30;7.55;;;7.00;99.90;;;;;;5033287;28;20021;-40
2021/11/18 03:34:16;;;;;;;18.73;7.90;;;7.00;99.90;;;;;;5032957;28;20053;-39
2021/11/18 03:36:42;;;;;;;19.15;7.10;;;7.00;99.90;;;;;;5032266;28;20025;-40
2021/11/18 03:39:09;;;;;;;20.52;8.82;;;7.00;99.90;;;;;;5033160;28;20524;-40
2021/11/18 03:41:38;;;;;;;22.75;8.05;;;7.00;99.90;;;;;;5033072;28;20029;-40
2021/11/18 03:44:06;;;;;;;19.85;7.63;;;7.00;99.90;;;;;;5033074;28;20033;-40
2021/11/18 03:46:37;;;;;;;16.85;7.82;;;7.00;99.90;;;;;;5033099;28;20025;-41
2021/11/18 03:49:04;;;;;;;20.63;8.00;;;7.00;99.90;;;;;;5033070;28;20049;-40
2021/11/18 03:51:32;;;;;;;23.77;7.90;;;7.00;99.90;;;;;;5032081;28;20108;-40
2021/11/18 03:53:58;;;;;;;19.33;8.05;;;7.00;99.90;;;;;;5032871;28;20483;-40
2021/11/18 03:56:26;;;;;;;20.27;6.75;;;6.90;99.90;;;;;;5032440;28;20120;-40
2021/11/18 03:58:52;;;;;;;23.60;8.20;;;6.80;99.90;;;;;;5033003;28;20025;-40
2021/11/18 04:01:18;;;;;;;15.88;6.90;;;6.90;99.90;;;;;;5032726;28;20357;-40
2021/11/18 04:03:44;;;;;;;24.60;7.55;;;6.80;99.90;;;;;;5032883;28;20075;-40
2021/11/18 04:06:12;;;;;;;19.88;7.22;;;6.70;99.90;;;;;;5031978;28;20037;-41
2021/11/18 04:08:37;;;;;;;18.90;7.88;;;6.70;99.90;;;;;;5032779;28;20032;-40
2021/11/18 04:11:03;;;;;;;19.65;7.72;;;6.60;99.90;;;;;;5032543;28;20033;-40
2021/11/18 04:13:29;;;;;;;17.10;7.50;;;6.70;99.90;;;;;;5032745;28;20022;-41
2021/11/18 04:15:56;;;;;;;18.88;6.93;;;6.70;99.90;;;;;;5032645;28;20022;-40
2021/11/18 04:18:23;;;;;;;17.80;7.75;;;6.70;99.90;;;;;;5032622;28;20022;-41
2021/11/18 04:20:51;;;;;;;17.58;6.93;;;6.70;99.90;;;;;;5032650;28;20025;-40
2021/11/18 04:23:20;;;;;;;21.85;8.20;;;6.60;99.90;;;;;;5031562;28;20393;-40
2021/11/18 04:25:46;;;;;;;24.15;7.38;;;6.60;99.90;;;;;;5032541;28;20053;-40
2021/11/18 04:28:12;;;;;;;22.58;8.60;;;6.60;99.90;;;;;;5032528;28;20169;-40
2021/11/18 04:31:10;;;;;;;24.77;8.30;;;6.50;99.90;;;;;;5032459;28;20026;-40
2021/11/18 04:33:36;;;;;;;17.52;8.07;;;6.60;99.90;;;;;;5032417;28;20092;-40
2021/11/18 04:36:05;;;;;;;27.27;8.98;;;6.50;99.90;;;;;;5032227;28;20029;-40
2021/11/18 04:38:31;;;;;;;17.10;7.35;;;6.50;99.90;;;;;;5031754;28;20029;-40
2021/11/18 04:40:57;;;;;;;19.33;7.00;;;6.50;99.90;;;;;;5032286;28;20060;-40
2021/11/18 04:43:24;;;;;;;19.17;7.90;;;6.50;99.90;;;;;;5032378;28;20033;-40
2021/11/18 04:45:50;;;;;;;23.30;8.68;;;6.50;99.90;;;;;;5032393;28;20057;-40
2021/11/18 04:48:17;;;;;;;23.23;7.60;;;6.50;99.90;;;;;;5032261;28;20044;-40
2021/11/18 04:50:43;;;;;;;19.58;7.03;;;6.40;99.90;;;;;;5032241;28;20030;-40
2021/11/18 04:53:09;;;;;;;21.42;7.57;;;6.30;99.90;;;;;;5031301;28;20038;-41
2021/11/18 04:55:36;;;;;;;18.67;7.47;;;6.30;99.90;;;;;;5032321;28;20036;-40
2021/11/18 04:58:02;;;;;;;19.23;7.30;;;6.20;99.90;;;;;;5032231;28;20040;-42
2021/11/18 05:00:33;;;;;;;21.63;7.07;;;6.20;99.90;;;;;;5032225;28;20030;-42
2021/11/18 05:02:59;;;;;;;22.42;7.25;;;6.20;99.90;;;;;;5032101;28;20389;-40
2021/11/18 05:05:26;;;;;;;20.40;7.10;;;6.20;99.90;;;;;;5032054;28;20030;-41
2021/11/18 05:07:53;;;;;;;22.10;7.75;;;6.20;99.90;;;;;;5033611;28;20060;-40
2021/11/18 05:10:20;;;;;;;27.27;7.80;;;6.30;99.90;;;;;;5035948;28;20029;-39
2021/11/18 05:12:46;;;;;;;20.08;7.32;;;6.30;99.90;;;;;;5035990;28;20021;-40
2021/11/18 05:15:16;;;;;;;19.17;7.40;;;6.30;99.90;;;;;;5035709;28;20033;-42
2021/11/18 05:17:43;;;;;;;23.83;8.27;;;6.40;99.90;;;;;;5035733;28;20060;-40
2021/11/18 05:20:10;;;;;;;22.02;8.07;;;6.40;99.90;;;;;;5035764;28;20534;-40
2021/11/18 05:22:36;;;;;;;20.13;6.95;;;6.40;99.90;;;;;;5034759;28;20036;-40
2021/11/18 05:25:03;;;;;;;19.42;7.47;;;6.40;99.90;;;;;;5035693;28;20109;-39
2021/11/18 05:27:29;;;;;;;19.05;6.93;;;6.40;99.90;;;;;;5035668;28;20021;-40
2021/11/18 05:29:54;;;;;;;21.08;7.65;;;6.40;99.90;;;;;;5035700;28;20052;-41
2021/11/18 05:32:19;;;;;;;19.67;7.38;;;6.40;99.90;;;;;;5035327;28;20040;-41
2021/11/18 05:34:45;;;;;;;19.73;7.63;;;6.40;99.90;;;;;;5035472;28;20128;-40
2021/11/18 05:37:11;;;;;;;20.52;6.93;;;6.50;99.90;;;;;;5034374;28;20037;-40
2021/11/18 05:39:37;;;;;;;22.38;7.93;;;6.50;99.90;;;;;;5035488;28;20546;-40
2021/11/18 05:42:04;;;;;;;26.42;8.07;;;6.40;99.90;;;;;;5035246;28;20112;-40
2021/11/18 05:44:29;;;;;;;17.45;6.70;;;6.50;99.90;;;;;;5035385;28;20040;-42
2021/11/18 05:46:55;;;;;;;16.02;6.72;;;6.50;99.90;;;;;;5035282;28;20022;-41
2021/11/18 05:49:20;;;;;;;17.73;7.85;;;6.40;99.90;;;;;;5035120;28;20033;-41
2021/11/18 05:51:48;;;;;;;23.25;7.53;;;6.50;99.90;;;;;;5034407;28;20268;-40
2021/11/18 05:54:14;;;;;;;17.73;6.82;;;6.50;99.90;;;;;;5031812;28;20400;-40
2021/11/18 05:56:40;;;;;;;18.70;6.80;;;6.60;99.90;;;;;;5033927;28;20546;-43
2021/11/18 05:59:06;;;;;;;20.08;6.55;;;6.60;99.90;;;;;;5033788;28;20061;-40
2021/11/18 06:01:31;;;;;;;14.38;6.25;;;6.60;99.90;;;;;;5033467;28;20025;-41
2021/11/18 06:03:59;;;;;;;20.30;6.47;;;6.60;99.90;;;;;;5033505;28;20025;-40
2021/11/18 06:06:25;;;;;;;28.20;7.25;;;6.60;99.90;;;;;;5032632;28;20484;-43
2021/11/18 06:08:51;;;;;;;28.00;6.55;;;6.70;99.90;;;;;;5033545;28;20076;-43
2021/11/18 06:11:16;;;;;;;23.90;7.32;;;6.70;99.90;;;;;;5032799;28;20029;-40
2021/11/18 06:13:43;;;;;;;20.63;7.47;;;6.70;99.90;;;;;;5034559;28;20033;-40
2021/11/18 06:16:09;;;;;;;14.23;5.68;;;6.70;99.90;;;;;;5034604;28;20506;-41
2021/11/18 06:18:35;;;;;;;17.77;6.00;;;6.80;99.90;;;;;;5034502;28;20037;-41
2021/11/18 06:21:01;;;;;;;16.52;6.43;;;6.80;99.90;;;;;;5034872;28;20014;-40
2021/11/18 06:23:27;;;;;;;18.38;7.15;;;6.80;99.90;;;;;;5033665;28;20465;-41
2021/11/18 06:25:52;;;;;;;17.50;7.20;;;6.80;99.90;;;;;;5034582;28;20029;-42
2021/11/18 06:28:18;;;;;;;19.48;6.80;;;6.80;99.90;;;;;;5034515;28;20025;-41
2021/11/18 06:30:53;;;;;;;22.15;7.95;;;6.90;99.90;;;;;;5034456;28;20096;-40
2021/11/18 06:33:21;;;;;;;24.42;6.80;;;6.90;99.90;;;;;;5034135;28;20131;-41
2021/11/18 06:35:47;;;;;;;14.77;5.25;;;6.90;99.90;;;;;;5034401;28;20033;-40
2021/11/18 06:38:13;;;;;;;18.15;6.18;;;6.90;99.90;;;;;;5033436;28;20025;-43
2021/11/18 06:40:39;;;;;;;20.67;7.03;;;6.90;99.90;;;;;;5034261;28;20029;-40
2021/11/18 06:43:05;;;;;;;22.45;6.80;;;6.90;99.90;;;;;;5034296;28;20052;-43
2021/11/18 06:45:34;;;;;;;20.65;5.65;;;6.90;99.90;;;;;;5034002;28;20056;-40
2021/11/18 06:47:59;;;;;;;18.30;7.03;;;7.00;99.90;;;;;;5034230;28;20022;-40
2021/11/18 06:50:25;;;;;;;22.92;7.07;;;7.00;99.90;;;;;;5034133;28;20430;-41
2021/11/18 06:52:51;;;;;;;25.77;6.97;;;7.00;99.90;;;;;;5033204;28;20032;-41
2021/11/18 06:55:17;;;;;;;16.98;6.07;;;7.00;99.90;;;;;;5033981;28;20029;-40
2021/11/18 06:57:43;;;;;;;20.02;6.40;;;7.00;99.90;;;;;;5033892;28;20039;-40
2021/11/18 07:00:11;;;;;;;17.33;5.72;;;7.10;99.90;;;;;;5033834;28;20025;-42
2021/11/18 07:02:36;;;;;;;12.38;5.35;;;7.10;99.90;;;;;;5033730;28;20041;-40
2021/11/18 07:05:03;;;;;;;17.25;6.35;;;7.10;99.90;;;;;;5033872;28;20025;-40
2021/11/18 07:07:28;;;;;;;18.75;7.47;;;7.20;99.90;;;;;;5032462;28;20438;-40
2021/11/18 07:09:54;;;;;;;16.75;5.82;;;7.20;99.90;;;;;;5033763;28;20060;-40
2021/11/18 07:12:21;;;;;;;17.45;6.75;;;7.20;99.90;;;;;;5033534;28;20032;-40
2021/11/18 07:14:48;;;;;;;14.07;6.13;;;7.30;99.90;;;;;;5027670;28;20366;-39
2021/11/18 07:17:14;;;;;;;13.73;5.30;;;7.30;99.90;;;;;;5033366;28;20068;-40
2021/11/18 07:19:40;;;;;;;24.70;6.75;;;7.40;99.90;;;;;;5033300;28;20069;-40
2021/11/18 07:22:06;;;;;;;15.23;5.82;;;7.50;99.90;;;;;;5031918;28;20030;-41
2021/11/18 07:24:34;;;;;;;14.98;5.68;;;7.60;99.90;;;;;;5033251;28;20022;-40
2021/11/18 07:26:59;;;;;;;14.27;6.18;;;7.70;99.90;;;;;;5033103;28;20022;-43
2021/11/18 07:29:25;;;;;;;20.02;6.07;;;7.80;99.90;;;;;;5032542;28;20053;-40
2021/11/18 07:31:51;;;;;;;21.00;6.13;;;7.80;99.90;;;;;;5033209;28;20072;-41
2021/11/18 07:34:18;;;;;;;22.52;6.57;;;7.90;99.90;;;;;;5032979;28;20111;-40
2021/11/18 07:36:45;;;;;;;14.55;6.18;;;8.00;99.90;;;;;;5031605;28;20029;-40
2021/11/18 07:39:11;;;;;;;12.82;5.68;;;8.00;99.90;;;;;;5032672;28;20029;-41
2021/11/18 07:41:37;;;;;;;14.63;5.80;;;8.00;99.90;;;;;;5032696;28;20030;-40
2021/11/18 07:44:03;;;;;;;18.00;6.15;;;8.10;99.90;;;;;;5033027;28;20061;-40
2021/11/18 07:46:29;;;;;;;13.52;5.95;;;8.20;99.90;;;;;;5032723;28;20032;-41
2021/11/18 07:48:56;;;;;;;17.17;5.75;;;8.20;99.90;;;;;;5032854;28;20443;-40
2021/11/18 07:51:22;;;;;;;14.70;6.25;;;8.30;99.90;;;;;;5031347;28;20029;-40
2021/11/18 07:53:49;;;;;;;15.05;6.57;;;8.40;99.90;;;;;;5032803;28;20022;-41
2021/11/18 07:56:17;;;;;;;18.40;6.30;;;8.50;99.90;;;;;;5032592;28;20029;-41
2021/11/18 07:58:43;;;;;;;13.38;5.22;;;8.60;99.90;;;;;;5032500;28;20040;-41
2021/11/18 08:01:09;;;;;;;14.57;5.63;;;8.60;99.90;;;;;;5032665;28;20026;-40
2021/11/18 08:03:35;;;;;;;12.15;5.30;;;8.70;99.90;;;;;;5032521;28;20412;-41
2021/11/18 08:06:03;;;;;;;16.42;5.22;;;8.70;99.90;;;;;;5032179;28;20032;-41
2021/11/18 08:08:28;;;;;;;11.73;4.93;;;8.90;99.90;;;;;;5032111;28;20017;-40
2021/11/18 08:10:54;;;;;;;13.43;5.35;;;9.00;99.90;;;;;;5032392;28;20021;-40
2021/11/18 08:13:20;;;;;;;20.05;6.20;;;9.00;99.90;;;;;;5032494;28;20080;-41
2021/11/18 08:15:45;;;;;;;16.17;5.13;;;9.00;99.90;;;;;;5032457;28;20109;-40
2021/11/18 08:18:11;;;;;;;13.75;5.28;;;9.10;99.90;;;;;;5032546;28;20135;-41
2021/11/18 08:20:37;;;;;;;13.50;5.82;;;9.00;99.90;;;;;;5031811;28;20036;-40
2021/11/18 08:23:03;;;;;;;11.77;5.05;;;9.00;99.90;;;;;;5030794;28;20032;-40
2021/11/18 08:25:31;;;;;;;12.02;6.13;;;8.90;99.90;;;;;;5032140;28;20489;-40
2021/11/18 08:27:57;;;;;;;12.98;4.60;;;8.90;99.90;;;;;;5032453;28;20051;-40
2021/11/18 08:30:27;;;;;;;15.52;5.43;;;9.00;99.90;;;;;;5032240;28;20025;-40
2021/11/18 08:32:54;;;;;;;16.02;5.60;;;9.00;99.90;;;;;;5032192;28;20481;-40
2021/11/18 08:35:26;;;;;;;16.88;5.40;;;9.00;99.90;;;;;;5032646;28;20473;-40
2021/11/18 08:37:52;;;;;;;10.70;5.03;;;9.00;99.90;;;;;;5031035;28;20026;-41
2021/11/18 08:40:18;;;;;;;12.93;4.60;;;9.00;99.90;;;;;;5032343;28;20026;-41
2021/11/18 08:42:46;;;;;;;13.85;5.30;;;9.00;99.90;;;;;;5034303;28;20112;-40
2021/11/18 08:45:12;;;;;;;25.33;6.32;;;8.90;99.90;;;;;;5036294;28;20029;-41
2021/11/18 08:47:38;;;;;;;12.82;4.45;;;8.90;99.90;;;;;;5036136;28;20064;-41
2021/11/18 08:50:08;;;;;;;8.25;4.43;;;8.90;99.90;;;;;;5036161;28;20063;-40
2021/11/18 08:52:35;;;;;;;15.38;6.40;;;9.00;99.90;;;;;;5034526;28;20033;-40
2021/11/18 08:55:06;;;;;;;19.38;5.47;;;9.00;99.90;;;;;;5036116;28;20061;-41
2021/11/18 08:57:32;;;;;;;10.75;4.63;;;9.00;99.90;;;;;;5035808;28;20041;-41
2021/11/18 08:59:58;;;;;;;9.02;4.40;;;9.00;99.90;;;;;;5036211;28;20033;-41
2021/11/18 09:02:27;;;;;;;16.15;5.22;;;9.00;99.90;;;;;;5035795;28;20026;-41
2021/11/18 09:04:54;;;;;;;8.80;4.18;;;9.00;99.90;;;;;;5035964;28;20041;-41
2021/11/18 09:07:21;;;;;;;9.68;4.40;;;9.10;99.90;;;;;;5034539;28;20430;-40
2021/11/18 09:09:47;;;;;;;13.80;4.70;;;9.10;99.90;;;;;;5035683;28;20136;-43
2021/11/18 09:12:13;;;;;;;17.90;5.20;;;9.20;99.90;;;;;;5035884;28;20072;-40
2021/11/18 09:14:39;;;;;;;14.40;5.63;;;9.20;99.90;;;;;;5035579;28;20422;-41
2021/11/18 09:17:08;;;;;;;13.68;5.38;;;9.20;99.90;;;;;;5035908;28;20052;-41
2021/11/18 09:19:37;;;;;;;11.70;4.78;;;9.20;99.90;;;;;;5035441;28;20034;-40
2021/11/18 09:22:05;;;;;;;14.20;6.18;;;9.20;99.90;;;;;;5034239;28;20032;-41
2021/11/18 09:24:58;;;;;;;15.63;6.07;;;9.20;99.90;;;;;;5033405;28;20030;-41
2021/11/18 09:27:33;;;;;;;13.63;5.25;;;9.20;99.90;;;;;;5034443;28;20034;-40
2021/11/18 09:30:03;;;;;;;13.25;4.38;;;9.20;99.90;;;;;;5035487;28;20025;-40
2021/11/18 09:32:30;;;;;;;13.88;5.18;;;9.20;99.90;;;;;;5034194;28;20034;-40
2021/11/18 09:34:57;;;;;;;16.35;4.80;;;9.20;99.90;;;;;;5035541;28;20366;-41
2021/11/18 09:37:23;;;;;;;16.48;5.80;;;9.20;99.90;;;;;;5034025;28;20104;-41
2021/11/18 09:39:50;;;;;;;11.25;5.20;;;9.20;99.90;;;;;;5035195;28;20025;-40
2021/11/18 09:42:19;;;;;;;14.32;5.57;;;9.30;99.90;;;;;;5035297;28;20469;-41
2021/11/18 09:44:51;;;;;;;16.55;5.70;;;9.20;99.90;;;;;;5034841;28;20025;-40
2021/11/18 09:47:39;;;;;;;17.38;6.45;;;9.20;99.90;;;;;;5035104;28;20014;-40
2021/11/18 09:50:29;;;;;;;17.60;6.00;;;9.30;99.90;;;;;;5035093;28;20508;-39
2021/11/18 09:53:09;;;;;;;14.45;5.00;;;9.30;99.90;;;;;;5033504;28;20037;-40
2021/11/18 09:55:44;;;;;;;12.93;4.97;;;9.30;99.90;;;;;;5034973;28;20040;-41
2021/11/18 09:58:22;;;;;;;19.65;5.93;;;9.40;99.90;;;;;;5035088;28;20504;-40
2021/11/18 10:00:59;;;;;;;16.35;5.50;;;9.40;99.90;;;;;;5034797;28;20048;-41
2021/11/18 10:03:35;;;;;;;15.27;6.03;;;9.40;99.90;;;;;;5034723;28;20037;-40
2021/11/18 10:06:19;;;;;;;13.80;6.03;;;9.40;99.90;;;;;;5032613;28;20123;-41
2021/11/18 10:09:06;;;;;;;16.13;4.72;;;9.40;99.90;;;;;;5034656;28;20013;-40
2021/11/18 10:12:01;;;;;;;18.90;5.07;;;9.40;99.90;;;;;;5034848;28;20025;-40
2021/11/18 10:14:44;;;;;;;12.05;4.85;;;9.50;99.90;;;;;;5032514;28;20052;-41
2021/11/18 10:17:09;;;;;;;12.43;5.57;;;9.50;99.90;;;;;;5034683;28;20033;-41
2021/11/18 10:19:41;;;;;;;16.98;5.97;;;9.40;99.90;;;;;;5034509;28;20356;-41
2021/11/18 10:22:06;;;;;;;14.15;6.30;;;9.40;99.90;;;;;;5033207;28;20031;-41
2021/11/18 10:24:38;;;;;;;18.65;6.30;;;9.40;99.90;;;;;;5034302;28;20105;-40
2021/11/18 10:27:15;;;;;;;17.92;6.30;;;9.50;99.90;;;;;;5034434;28;20075;-41
2021/11/18 10:30:05;;;;;;;19.05;5.75;;;9.50;99.90;;;;;;5034273;28;20034;-41
2021/11/18 10:32:41;;;;;;;13.75;4.70;;;9.60;99.90;;;;;;5034178;28;20248;-40
2021/11/18 10:35:17;;;;;;;12.48;5.97;;;9.60;99.90;;;;;;5030570;28;20112;-40
2021/11/18 10:37:49;;;;;;;11.95;4.57;;;9.70;99.90;;;;;;5032824;28;20029;-38
2021/11/18 10:40:24;;;;;;;18.55;5.22;;;9.80;99.90;;;;;;5034195;28;20393;-41
2021/11/18 10:43:17;;;;;;;12.73;4.40;;;9.80;99.90;;;;;;5027582;28;20064;-40
2021/11/18 10:46:09;;;;;;;13.25;4.28;;;9.80;99.90;;;;;;5014106;28;20028;-40
2021/11/18 10:48:42;;;;;;;17.77;5.40;;;9.90;99.90;;;;;;5014188;28;20022;-40
2021/11/18 10:51:17;;;;;;;13.48;4.50;;;9.90;99.90;;;;;;5012838;28;20048;-41
2021/11/18 10:53:58;;;;;;;10.95;4.28;;;9.90;99.90;;;;;;5013682;28;20038;-41
2021/11/18 10:56:42;;;;;;;16.35;4.95;;;9.90;99.90;;;;;;5013853;28;20042;-41
2021/11/18 10:59:14;;;;;;;19.70;5.13;;;9.90;99.90;;;;;;5012810;28;20025;-40
2021/11/18 11:01:43;;;;;;;19.40;5.80;;;9.90;99.90;;;;;;5013715;28;20109;-41
2021/11/18 11:04:11;;;;;;;16.33;5.22;;;9.90;99.90;;;;;;5013175;28;20044;-41
2021/11/18 11:06:39;;;;;;;14.90;5.07;;;9.90;99.90;;;;;;5012440;28;20030;-41
2021/11/18 11:09:08;;;;;;;16.50;5.80;;;10.00;99.90;;;;;;5013825;28;20072;-41
2021/11/18 11:12:03;;;;;;;18.90;4.93;;;10.10;99.90;;;;;;5013826;28;20460;-41
2021/11/18 11:14:56;;;;;;;17.45;6.20;;;10.10;99.90;;;;;;5013527;28;20413;-40
2021/11/18 11:17:51;;;;;;;18.98;4.70;;;10.10;99.90;;;;;;5013717;28;20112;-41
2021/11/18 11:20:38;;;;;;;12.23;4.75;;;10.10;99.90;;;;;;5004085;28;20037;-41
2021/11/18 11:23:22;;;;;;;17.50;5.13;;;10.20;99.90;;;;;;5011815;28;20392;-41
2021/11/18 11:26:38;;;;;;;24.00;6.55;;;10.20;99.90;;;;;;5013422;28;20030;-41
2021/11/18 11:29:32;;;;;;;15.57;4.30;;;10.30;99.90;;;;;;5004144;28;20470;-41
2021/11/18 11:32:18;;;;;;;13.60;5.03;;;10.40;99.90;;;;;;5013271;28;20374;-40
2021/11/18 11:35:04;;;;;;;18.88;4.72;;;10.40;99.90;;;;;;5013229;28;20058;-41
2021/11/18 11:37:38;;;;;;;18.83;5.45;;;10.40;99.90;;;;;;5011871;28;20493;-41
2021/11/18 11:40:09;;;;;;;15.85;5.95;;;10.40;99.90;;;;;;5019636;28;20384;-41
2021/11/18 11:43:23;;;;;;;14.93;4.22;;;10.40;99.90;;;;;;5032989;28;20531;-41
2021/11/18 11:46:29;;;;;;;15.02;4.72;;;10.50;99.90;;;;;;5027710;28;20033;-41
2021/11/18 11:49:27;;;;;;;17.20;4.72;;;10.60;99.90;;;;;;5032826;28;20041;-41
2021/11/18 11:52:14;;;;;;;14.77;5.60;;;10.80;99.90;;;;;;5031427;28;20388;-40
2021/11/18 11:55:21;;;;;;;13.38;4.85;;;10.90;99.90;;;;;;5032890;28;20064;-41
2021/11/18 11:58:11;;;;;;;16.83;4.40;;;11.00;99.90;;;;;;5032723;28;20040;-44
2021/11/18 12:01:07;;;;;;;15.70;4.60;;;11.00;99.90;;;;;;5032609;28;20389;-41
2021/11/18 12:03:56;;;;;;;12.75;4.53;;;11.00;99.90;;;;;;5032599;28;20083;-41
2021/11/18 12:06:39;;;;;;;20.73;4.82;;;11.00;99.90;;;;;;5031473;28;20119;-42
2021/11/18 12:09:32;;;;;;;14.45;4.22;;;11.00;99.90;;;;;;5032440;28;20029;-41
2021/11/18 12:12:11;;;;;;;13.95;4.65;;;11.00;99.90;;;;;;5032291;28;20037;-40
2021/11/18 12:14:39;;;;;;;14.52;5.88;;;11.00;99.90;;;;;;5032533;28;20052;-41
2021/11/18 12:17:18;;;;;;;17.45;4.93;;;10.90;99.90;;;;;;5032086;28;20047;-41
2021/11/18 12:19:55;;;;;;;13.23;3.95;;;10.90;99.90;;;;;;5032387;28;20048;-41
2021/11/18 12:22:39;;;;;;;10.02;3.97;;;11.00;99.90;;;;;;5031106;28;20021;-41
2021/11/18 12:25:15;;;;;;;16.23;5.03;;;10.90;99.90;;;;;;5032274;28;20073;-41
2021/11/18 12:28:16;;;;;;;14.60;4.38;;;10.90;99.90;;;;;;5032262;28;20473;-41
2021/11/18 12:31:02;;;;;;;12.57;3.83;;;10.90;99.90;;;;;;5031379;28;20046;-40
2021/11/18 12:33:28;;;;;;;13.98;4.70;;;11.00;99.90;;;;;;5032151;28;20462;-40
2021/11/18 12:35:56;;;;;;;12.48;4.57;;;11.00;99.90;;;;;;5031671;28;20025;-41
2021/11/18 12:38:43;;;;;;;21.15;4.60;;;11.00;99.90;;;;;;5031863;28;20028;-41
2021/11/18 12:41:27;;;;;;;;;;;11.10;99.90;;;;;;5032619;28;20144;-41
2021/11/18 12:44:17;;;;;;;15.55;4.35;;;11.20;99.90;;;;;;5032153;28;19916;-41
2021/11/18 12:47:00;;;;;;;11.98;4.15;;;11.30;99.90;;;;;;5032043;28;20033;-41
2021/11/18 12:49:52;;;;;;;11.55;3.90;;;11.30;99.90;;;;;;5032157;28;20048;-40
2021/11/18 12:52:38;;;;;;;12.15;4.60;;;11.30;99.90;;;;;;5030838;28;20473;-41
2021/11/18 12:55:13;;;;;;;17.35;5.20;;;11.30;99.90;;;;;;5032102;28;20033;-40
2021/11/18 12:57:46;;;;;;;15.90;4.90;;;11.20;99.90;;;;;;5032130;28;20024;-43
2021/11/18 13:00:16;;;;;;;17.90;4.53;;;11.20;99.90;;;;;;5032017;28;20049;-41
2021/11/18 13:02:45;;;;;;;16.20;4.97;;;11.20;99.90;;;;;;5032261;28;20036;-44